createdAt,value
2023-04-26T00:01:05.191Z,4.90
2023-04-26T00:03:53.826Z,4.90
2023-04-26T00:06:39.665Z,4.90
2023-04-26T00:09:27.769Z,4.80
2023-04-26T00:12:13.026Z,4.80
2023-04-26T00:14:58.464Z,4.80
2023-04-26T00:17:44.212Z,4.80
2023-04-26T00:20:30.093Z,4.70
2023-04-26T00:23:18.400Z,4.80
2023-04-26T00:26:04.482Z,4.60
2023-04-26T00:28:52.888Z,4.60
2023-04-26T00:31:38.407Z,4.50
2023-04-26T00:34:23.896Z,4.50
2023-04-26T00:37:09.399Z,4.60
2023-04-26T00:39:55.303Z,4.60
2023-04-26T00:42:42.936Z,4.50
2023-04-26T00:45:28.538Z,4.50
2023-04-26T00:48:16.386Z,4.40
2023-04-26T00:51:02.078Z,4.20
2023-04-26T00:53:47.510Z,4.20
2023-04-26T00:56:33.824Z,4.30
2023-04-26T00:59:21.213Z,4.20
2023-04-26T01:02:06.552Z,4.20
2023-04-26T01:04:51.886Z,4.30
2023-04-26T01:07:41.059Z,4.20
2023-04-26T01:10:26.551Z,4.20
2023-04-26T01:13:15.548Z,4.10
2023-04-26T01:16:02.566Z,4.20
2023-04-26T01:18:54.662Z,4.10
2023-04-26T01:21:41.637Z,4.10
2023-04-26T01:24:26.963Z,4.00
2023-04-26T01:27:12.981Z,4.10
2023-04-26T01:29:59.055Z,3.90
2023-04-26T01:32:45.020Z,4.00
2023-04-26T01:35:31.100Z,4.00
2023-04-26T01:38:20.070Z,3.90
2023-04-26T01:41:05.899Z,3.90
2023-04-26T01:43:51.254Z,3.80
2023-04-26T01:46:37.085Z,4.00
2023-04-26T01:49:25.129Z,4.00
2023-04-26T01:52:10.459Z,3.90
2023-04-26T01:54:55.856Z,4.00
2023-04-26T01:57:41.227Z,3.90
2023-04-26T02:00:28.788Z,3.90
2023-04-26T02:03:14.284Z,3.90
2023-04-26T02:05:59.907Z,3.90
2023-04-26T02:08:45.831Z,3.80
2023-04-26T02:11:31.630Z,3.60
2023-04-26T02:14:16.846Z,3.80
2023-04-26T02:17:04.275Z,3.80
2023-04-26T02:19:49.472Z,3.70
2023-04-26T02:22:34.654Z,3.70
2023-04-26T02:25:19.997Z,3.70
2023-04-26T02:28:08.024Z,3.60
2023-04-26T02:30:53.301Z,3.80
2023-04-26T02:33:38.570Z,3.70
2023-04-26T02:36:27.417Z,3.70
2023-04-26T02:39:13.468Z,3.70
2023-04-26T02:41:59.516Z,3.70
2023-04-26T02:44:45.302Z,3.60
2023-04-26T02:47:33.119Z,3.50
2023-04-26T02:50:18.618Z,3.50
2023-04-26T02:53:04.389Z,3.50
2023-04-26T02:55:49.911Z,3.50
2023-04-26T02:58:37.864Z,3.40
2023-04-26T03:01:26.164Z,3.40
2023-04-26T03:04:11.878Z,3.30
2023-04-26T03:06:57.299Z,3.20
2023-04-26T03:09:45.837Z,3.40
2023-04-26T03:12:31.412Z,3.30
2023-04-26T03:15:16.859Z,3.30
2023-04-26T03:18:02.343Z,3.20
2023-04-26T03:20:47.599Z,3.30
2023-04-26T03:23:35.565Z,3.40
2023-04-26T03:26:23.310Z,3.40
2023-04-26T03:29:08.772Z,3.40
2023-04-26T03:31:56.622Z,3.30
2023-04-26T03:34:42.016Z,3.40
2023-04-26T03:37:30.411Z,3.30
2023-04-26T03:40:18.145Z,3.30
2023-04-26T03:43:04.216Z,3.30
2023-04-26T03:45:52.737Z,3.30
2023-04-26T03:48:38.214Z,3.30
2023-04-26T03:51:28.756Z,3.40
2023-04-26T03:54:14.684Z,3.30
2023-04-26T03:57:00.359Z,3.30
2023-04-26T03:59:45.668Z,3.20
2023-04-26T04:02:31.441Z,3.40
2023-04-26T04:05:19.641Z,3.40
2023-04-26T04:08:05.145Z,3.40
2023-04-26T04:10:50.846Z,3.40
2023-04-26T04:13:38.694Z,3.40
2023-04-26T04:16:24.167Z,3.30
2023-04-26T04:19:11.340Z,3.40
2023-04-26T04:21:56.644Z,3.40
2023-04-26T04:24:44.165Z,3.30
2023-04-26T04:27:30.404Z,3.50
2023-04-26T04:30:16.177Z,3.40
2023-04-26T04:33:01.648Z,3.40
2023-04-26T04:35:49.087Z,3.30
2023-04-26T04:38:37.379Z,3.30
2023-04-26T04:41:23.648Z,3.40
2023-04-26T04:44:09.232Z,3.50
2023-04-26T04:46:54.400Z,3.50
2023-04-26T04:49:39.938Z,3.50
2023-04-26T04:52:25.311Z,3.60
2023-04-26T04:55:10.697Z,3.60
2023-04-26T04:57:56.310Z,3.50
2023-04-26T05:00:45.718Z,3.60
2023-04-26T05:03:31.982Z,3.60
2023-04-26T05:06:18.143Z,3.60
2023-04-26T05:09:06.368Z,3.60
2023-04-26T05:11:55.188Z,3.70
2023-04-26T05:14:40.942Z,3.70
2023-04-26T05:17:26.255Z,3.80
2023-04-26T05:20:12.296Z,3.90
2023-04-26T05:22:59.878Z,3.90
2023-04-26T05:25:45.468Z,3.90
2023-04-26T05:28:31.081Z,3.90
2023-04-26T05:31:19.074Z,3.90
2023-04-26T05:34:04.713Z,4.00
2023-04-26T05:36:50.894Z,4.00
2023-04-26T05:39:36.323Z,4.10
2023-04-26T05:42:21.704Z,4.20
2023-04-26T05:45:08.200Z,4.20
2023-04-26T05:47:53.490Z,4.20
2023-04-26T05:50:40.051Z,4.30
2023-04-26T05:53:25.881Z,4.20
2023-04-26T05:56:11.373Z,4.30
2023-04-26T05:58:57.694Z,4.30
2023-04-26T06:01:43.224Z,4.50
2023-04-26T06:04:31.631Z,4.40
2023-04-26T06:07:17.494Z,4.50
2023-04-26T06:10:03.610Z,4.50
2023-04-26T06:12:49.524Z,4.70
2023-04-26T06:15:37.287Z,4.60
2023-04-26T06:18:22.732Z,4.60
2023-04-26T06:21:08.149Z,4.70
2023-04-26T06:23:55.918Z,4.90
2023-04-26T06:26:43.602Z,4.80
2023-04-26T06:29:32.952Z,4.90
2023-04-26T06:32:20.883Z,4.90
2023-04-26T06:35:09.630Z,5.10
2023-04-26T06:37:55.264Z,5.10
2023-04-26T06:40:40.922Z,5.10
2023-04-26T06:43:26.418Z,5.20
2023-04-26T06:46:11.776Z,5.30
2023-04-26T06:48:57.331Z,5.50
2023-04-26T06:51:42.749Z,5.60
2023-04-26T06:54:29.911Z,5.60
2023-04-26T06:57:18.029Z,5.50
2023-04-26T07:00:04.635Z,5.60
2023-04-26T07:02:49.964Z,5.80
2023-04-26T07:05:35.620Z,5.80
2023-04-26T07:08:20.850Z,5.70
2023-04-26T07:11:13.548Z,5.70
2023-04-26T07:14:02.155Z,5.70
2023-04-26T07:16:47.516Z,5.70
2023-04-26T07:19:33.318Z,5.80
2023-04-26T07:22:20.513Z,5.90
2023-04-26T07:25:06.721Z,6.00
2023-04-26T07:27:52.405Z,6.00
2023-04-26T07:30:37.689Z,6.20
2023-04-26T07:33:25.618Z,6.20
2023-04-26T07:36:13.860Z,6.50
2023-04-26T07:38:59.392Z,6.70
2023-04-26T07:41:47.673Z,7.20
2023-04-26T07:44:32.855Z,7.50
2023-04-26T07:47:18.454Z,7.70
2023-04-26T07:50:04.412Z,8.00
2023-04-26T07:52:52.000Z,7.80
2023-04-26T07:55:37.674Z,8.10
2023-04-26T07:58:23.709Z,8.00
2023-04-26T08:01:09.821Z,8.00
2023-04-26T08:03:56.083Z,8.40
2023-04-26T08:06:45.048Z,8.50
2023-04-26T08:09:33.232Z,8.60
2023-04-26T08:12:19.089Z,8.50
2023-04-26T08:15:05.554Z,8.30
2023-04-26T08:17:53.516Z,8.20
2023-04-26T08:20:39.602Z,8.10
2023-04-26T08:23:25.394Z,8.20
2023-04-26T08:26:10.850Z,8.20
2023-04-26T08:28:57.398Z,8.10
2023-04-26T08:31:45.317Z,8.40
2023-04-26T08:34:36.443Z,8.30
2023-04-26T08:37:21.785Z,8.70
2023-04-26T08:40:10.988Z,8.70
2023-04-26T08:42:56.815Z,8.60
2023-04-26T08:45:45.835Z,8.50
2023-04-26T08:48:36.299Z,8.50
2023-04-26T08:51:22.685Z,8.40
2023-04-26T08:54:12.005Z,8.20
2023-04-26T08:57:01.947Z,7.90
2023-04-26T08:59:50.422Z,8.20
2023-04-26T09:02:39.356Z,8.90
2023-04-26T09:05:26.690Z,9.70
2023-04-26T09:08:19.897Z,9.80
2023-04-26T09:11:05.684Z,9.90
2023-04-26T09:13:51.552Z,9.60
2023-04-26T09:16:37.699Z,9.90
2023-04-26T09:19:44.727Z,10.30
2023-04-26T09:22:34.347Z,10.30
2023-04-26T09:25:28.770Z,9.70
2023-04-26T09:28:24.301Z,9.80
2023-04-26T09:31:09.733Z,9.90
2023-04-26T09:34:01.202Z,10.30
2023-04-26T09:36:57.522Z,10.70
2023-04-26T09:39:43.284Z,10.30
2023-04-26T09:42:31.867Z,10.40
2023-04-26T09:45:17.739Z,10.30
2023-04-26T09:48:16.931Z,9.90
2023-04-26T09:51:12.316Z,9.90
2023-04-26T09:54:01.327Z,9.90
2023-04-26T09:57:02.737Z,10.00
2023-04-26T09:59:56.280Z,10.40
2023-04-26T10:02:44.972Z,10.30
2023-04-26T10:05:33.956Z,10.20
2023-04-26T10:08:20.300Z,9.70
2023-04-26T10:11:07.698Z,9.50
2023-04-26T10:13:53.370Z,10.00
2023-04-26T10:16:39.297Z,10.10
2023-04-26T10:19:27.015Z,10.20
2023-04-26T10:22:21.459Z,11.00
2023-04-26T10:25:09.458Z,10.90
2023-04-26T10:27:54.932Z,10.90
2023-04-26T10:30:59.862Z,10.10
2023-04-26T10:34:05.866Z,9.60
2023-04-26T10:37:14.762Z,9.40
2023-04-26T10:40:24.118Z,9.00
2023-04-26T10:43:13.746Z,8.90
2023-04-26T10:46:34.330Z,9.00
2023-04-26T10:49:26.286Z,9.00
2023-04-26T10:52:14.764Z,9.20
2023-04-26T10:55:00.788Z,9.40
2023-04-26T10:57:51.567Z,10.10
2023-04-26T11:00:39.002Z,10.70
2023-04-26T11:03:27.533Z,11.80
2023-04-26T11:06:15.211Z,11.80
2023-04-26T11:09:01.949Z,11.60
2023-04-26T11:11:53.468Z,11.60
2023-04-26T11:14:41.666Z,10.80
2023-04-26T11:17:31.662Z,10.90
2023-04-26T11:20:17.634Z,10.70
2023-04-26T11:23:03.294Z,10.80
2023-04-26T11:25:48.953Z,11.10
2023-04-26T11:28:39.351Z,12.20
2023-04-26T11:31:25.025Z,11.60
2023-04-26T11:34:10.858Z,11.80
2023-04-26T11:36:56.630Z,11.90
2023-04-26T11:39:45.037Z,11.90
2023-04-26T11:42:32.518Z,12.00
2023-04-26T11:45:18.786Z,12.50
2023-04-26T11:48:10.870Z,11.60
2023-04-26T11:51:00.671Z,11.70
2023-04-26T11:53:46.258Z,11.10
2023-04-26T11:56:31.528Z,11.30
2023-04-26T11:59:27.231Z,11.20
2023-04-26T12:02:12.668Z,11.60
2023-04-26T12:05:01.261Z,11.70
2023-04-26T12:07:56.805Z,11.90
2023-04-26T12:10:42.569Z,11.60
2023-04-26T12:13:32.599Z,11.00
2023-04-26T12:16:26.853Z,11.50
2023-04-26T12:19:13.453Z,11.10
2023-04-26T12:21:59.016Z,11.60
2023-04-26T12:24:48.200Z,12.70
2023-04-26T12:27:34.604Z,12.40
2023-04-26T12:30:20.015Z,12.90
2023-04-26T12:33:16.475Z,12.40
2023-04-26T12:36:11.358Z,12.10
2023-04-26T12:38:57.941Z,11.70
2023-04-26T12:41:44.478Z,11.10
2023-04-26T12:44:29.764Z,11.10
2023-04-26T12:47:18.259Z,11.30
2023-04-26T12:50:06.762Z,11.90
2023-04-26T12:52:52.358Z,12.00
2023-04-26T12:55:38.058Z,13.40
2023-04-26T12:58:26.033Z,16.10
2023-04-26T13:01:13.730Z,19.10
2023-04-26T13:04:00.735Z,22.20
2023-04-26T13:06:46.793Z,25.50
2023-04-26T13:09:32.105Z,31.20
2023-04-26T13:12:17.741Z,30.40
2023-04-26T13:15:06.360Z,32.40
2023-04-26T13:17:52.242Z,29.30
2023-04-26T13:20:38.812Z,24.30
2023-04-26T13:23:24.486Z,19.90
2023-04-26T13:26:10.342Z,16.60
2023-04-26T13:28:56.235Z,15.10
2023-04-26T13:31:41.981Z,15.70
2023-04-26T13:34:27.813Z,23.20
2023-04-26T13:37:13.746Z,20.40
2023-04-26T13:39:59.191Z,16.00
2023-04-26T13:42:44.439Z,14.20
2023-04-26T13:45:29.981Z,13.10
2023-04-26T13:48:15.572Z,12.40
2023-04-26T13:51:01.323Z,11.50
2023-04-26T13:53:46.646Z,11.10
2023-04-26T13:56:35.654Z,10.70
2023-04-26T13:59:21.811Z,10.60
2023-04-26T14:02:10.261Z,10.70
2023-04-26T14:04:56.046Z,11.50
2023-04-26T14:07:42.034Z,17.30
2023-04-26T14:10:27.290Z,17.10
2023-04-26T14:13:14.066Z,14.60
2023-04-26T14:16:00.745Z,13.00
2023-04-26T14:18:46.356Z,12.10
2023-04-26T14:21:36.469Z,11.50
2023-04-26T14:24:21.876Z,11.20
2023-04-26T14:27:07.092Z,12.00
2023-04-26T14:29:53.129Z,17.50
2023-04-26T14:32:39.223Z,22.60
2023-04-26T14:35:24.760Z,21.10
2023-04-26T14:38:10.232Z,17.90
2023-04-26T14:40:55.838Z,16.60
2023-04-26T14:43:41.496Z,15.20
2023-04-26T14:46:26.859Z,15.10
2023-04-26T14:49:12.262Z,14.60
2023-04-26T14:51:57.769Z,13.90
2023-04-26T14:54:43.257Z,13.30
2023-04-26T14:57:29.654Z,11.90
2023-04-26T15:00:17.865Z,11.60
2023-04-26T15:03:07.899Z,11.50
2023-04-26T15:05:53.929Z,11.40
2023-04-26T15:08:41.682Z,11.40
2023-04-26T15:11:27.646Z,11.10
2023-04-26T15:14:14.910Z,10.90
2023-04-26T15:17:03.719Z,11.10
2023-04-26T15:19:49.296Z,11.30
2023-04-26T15:22:37.136Z,13.40
2023-04-26T15:25:24.990Z,13.10
2023-04-26T15:28:10.943Z,12.90
2023-04-26T15:31:06.048Z,12.40
2023-04-26T15:33:56.432Z,12.50
2023-04-26T15:36:41.679Z,12.20
2023-04-26T15:39:27.196Z,12.30
2023-04-26T15:42:12.740Z,12.30
2023-04-26T15:45:00.861Z,12.10
2023-04-26T15:47:47.104Z,12.00
2023-04-26T15:50:33.034Z,11.60
2023-04-26T15:53:18.633Z,11.40
2023-04-26T15:56:04.267Z,10.80
2023-04-26T15:58:50.237Z,10.90
2023-04-26T16:01:35.599Z,10.80
2023-04-26T16:04:21.678Z,10.60
2023-04-26T16:07:07.252Z,10.40
2023-04-26T16:09:54.770Z,10.30
2023-04-26T16:12:41.722Z,10.30
2023-04-26T16:15:27.055Z,10.40
2023-04-26T16:18:12.807Z,10.20
2023-04-26T16:21:06.544Z,10.30
2023-04-26T16:23:51.948Z,10.10
2023-04-26T16:26:39.401Z,10.00
2023-04-26T16:29:25.307Z,9.90
2023-04-26T16:32:10.995Z,9.90
2023-04-26T16:34:58.478Z,9.80
2023-04-26T16:37:44.776Z,9.80
2023-04-26T16:40:30.333Z,9.90
2023-04-26T16:43:15.468Z,9.90
2023-04-26T16:46:05.846Z,10.20
2023-04-26T16:48:54.373Z,10.30
2023-04-26T16:51:39.935Z,10.30
2023-04-26T16:54:28.466Z,10.40
2023-04-26T16:57:14.579Z,10.50
2023-04-26T17:00:00.055Z,10.70
2023-04-26T17:02:45.858Z,10.50
2023-04-26T17:05:31.667Z,10.40
2023-04-26T17:08:18.402Z,10.10
2023-04-26T17:11:05.950Z,10.20
2023-04-26T17:13:51.327Z,10.40
2023-04-26T17:16:37.055Z,10.90
2023-04-26T17:19:22.688Z,11.00
2023-04-26T17:22:11.333Z,11.60
2023-04-26T17:24:56.886Z,12.30
2023-04-26T17:27:44.860Z,12.20
2023-04-26T17:30:32.277Z,11.30
2023-04-26T17:33:17.692Z,10.80
2023-04-26T17:36:03.844Z,10.40
2023-04-26T17:38:49.105Z,10.10
2023-04-26T17:41:34.464Z,9.80
2023-04-26T17:44:19.926Z,9.70
2023-04-26T17:47:06.200Z,9.50
2023-04-26T17:49:51.657Z,9.40
2023-04-26T17:52:37.523Z,9.30
2023-04-26T17:55:25.207Z,9.20
2023-04-26T17:58:10.987Z,9.00
2023-04-26T18:00:56.913Z,9.00
2023-04-26T18:03:43.022Z,8.80
2023-04-26T18:06:29.075Z,8.70
2023-04-26T18:09:14.673Z,8.60
2023-04-26T18:12:00.049Z,8.50
2023-04-26T18:14:45.899Z,8.50
2023-04-26T18:17:33.662Z,8.40
2023-04-26T18:20:19.101Z,8.30
2023-04-26T18:23:05.138Z,8.20
2023-04-26T18:25:50.779Z,8.10
2023-04-26T18:28:36.383Z,8.10
2023-04-26T18:31:22.587Z,8.10
2023-04-26T18:34:12.851Z,8.00
2023-04-26T18:36:58.377Z,7.90
2023-04-26T18:39:43.784Z,7.90
2023-04-26T18:42:29.258Z,7.70
2023-04-26T18:45:19.462Z,7.90
2023-04-26T18:48:05.072Z,7.80
2023-04-26T18:50:55.030Z,7.80
2023-04-26T18:53:40.445Z,8.00
2023-04-26T18:56:25.793Z,8.10
2023-04-26T18:59:11.610Z,8.20
2023-04-26T19:01:57.293Z,8.20
2023-04-26T19:04:42.900Z,8.20
2023-04-26T19:07:31.651Z,8.20
2023-04-26T19:10:17.005Z,8.20
2023-04-26T19:13:02.646Z,8.00
2023-04-26T19:15:48.110Z,7.90
2023-04-26T19:18:34.209Z,7.80
2023-04-26T19:21:19.839Z,7.70
2023-04-26T19:24:05.995Z,7.50
2023-04-26T19:26:51.155Z,7.50
2023-04-26T19:29:38.616Z,7.30
2023-04-26T19:32:26.869Z,7.20
2023-04-26T19:35:15.542Z,7.10
2023-04-26T19:38:05.351Z,7.00
2023-04-26T19:40:51.669Z,7.00
2023-04-26T19:43:37.317Z,7.10
2023-04-26T19:46:25.654Z,7.10
2023-04-26T19:49:11.741Z,7.10
2023-04-26T19:51:59.254Z,7.20
2023-04-26T19:54:44.705Z,7.30
2023-04-26T19:57:32.509Z,7.30
2023-04-26T20:00:20.623Z,7.20
2023-04-26T20:03:08.742Z,7.10
2023-04-26T20:05:54.448Z,7.10
2023-04-26T20:08:41.065Z,7.20
2023-04-26T20:11:26.404Z,7.10
2023-04-26T20:14:11.904Z,7.10
2023-04-26T20:17:02.493Z,7.00
2023-04-26T20:19:48.948Z,7.10
2023-04-26T20:22:34.645Z,7.00
2023-04-26T20:25:20.237Z,7.20
2023-04-26T20:28:06.126Z,7.10
2023-04-26T20:30:52.945Z,7.00
2023-04-26T20:33:41.015Z,6.90
2023-04-26T20:36:29.581Z,6.90
2023-04-26T20:39:16.630Z,6.90
2023-04-26T20:42:04.371Z,6.90
2023-04-26T20:44:49.860Z,6.90
2023-04-26T20:47:35.191Z,6.90
2023-04-26T20:50:21.102Z,6.90
2023-04-26T20:53:06.928Z,6.70
2023-04-26T20:55:53.399Z,6.70
2023-04-26T20:58:39.467Z,6.70
2023-04-26T21:01:24.728Z,6.80
2023-04-26T21:04:10.679Z,6.80
2023-04-26T21:06:57.449Z,6.80
2023-04-26T21:09:43.124Z,7.00
2023-04-26T21:12:28.588Z,7.00
2023-04-26T21:15:13.897Z,7.10
2023-04-26T21:18:01.940Z,7.10
2023-04-26T21:20:47.630Z,7.20
2023-04-26T21:23:35.781Z,7.30
2023-04-26T21:26:21.379Z,7.20
2023-04-26T21:29:07.725Z,7.30
2023-04-26T21:31:53.970Z,7.30
2023-04-26T21:34:39.878Z,7.20
2023-04-26T21:37:25.958Z,7.20
2023-04-26T21:40:11.869Z,7.30
2023-04-26T21:43:05.207Z,7.40
2023-04-26T21:45:52.435Z,7.40
2023-04-26T21:48:39.248Z,7.60
2023-04-26T21:51:27.808Z,7.70
2023-04-26T21:54:13.732Z,7.70
2023-04-26T21:56:59.187Z,7.70
2023-04-26T21:59:44.928Z,7.70
2023-04-26T22:02:30.968Z,7.80
2023-04-26T22:05:19.413Z,7.80
2023-04-26T22:08:05.711Z,7.70
2023-04-26T22:10:51.047Z,7.70
2023-04-26T22:13:41.820Z,7.70
2023-04-26T22:16:28.774Z,7.70
2023-04-26T22:19:15.176Z,7.70
2023-04-26T22:22:00.683Z,7.80
2023-04-26T22:24:45.925Z,7.80
2023-04-26T22:27:32.432Z,7.70
2023-04-26T22:30:25.588Z,7.70
2023-04-26T22:33:14.131Z,7.70
2023-04-26T22:36:00.118Z,7.60
2023-04-26T22:38:46.008Z,7.70
2023-04-26T22:41:32.832Z,7.60
2023-04-26T22:44:18.642Z,7.50
2023-04-26T22:47:04.631Z,7.60
2023-04-26T22:49:50.157Z,7.50
2023-04-26T22:52:36.505Z,7.50
2023-04-26T22:55:22.224Z,7.50
2023-04-26T22:58:08.248Z,7.50
2023-04-26T23:00:55.806Z,7.50
2023-04-26T23:03:41.929Z,7.50
2023-04-26T23:06:28.059Z,7.40
2023-04-26T23:09:14.492Z,7.50
2023-04-26T23:12:00.018Z,7.50
2023-04-26T23:14:50.637Z,7.40
2023-04-26T23:17:38.895Z,7.40
2023-04-26T23:20:26.969Z,7.40
2023-04-26T23:23:15.354Z,7.40
2023-04-26T23:26:01.148Z,7.40
2023-04-26T23:28:49.224Z,7.40
2023-04-26T23:31:34.535Z,7.40
2023-04-26T23:34:20.235Z,7.40
2023-04-26T23:37:06.967Z,7.50
2023-04-26T23:39:54.008Z,7.50
2023-04-26T23:42:39.412Z,7.50
2023-04-26T23:45:24.801Z,7.50
2023-04-26T23:48:12.179Z,7.40
2023-04-26T23:51:00.990Z,7.40
2023-04-26T23:53:46.339Z,7.50
2023-04-26T23:56:32.663Z,7.30
2023-04-26T23:59:20.764Z,7.40
